Řízení letového provozu České republiky
Letiste: LKNA Aktualizace: 28.06.2017 05:06:06  UTC
 METAR LKNA 28.06. 05:00 ...
METAR LKNA 280500Z 11005KT CAVOK 19/16 Q1004 NOSIG=
 TAF LKNA 27.06. 23:00 ...
TAF LKNA 272300Z 2800/2900 VRB02KT CAVOK      BECMG 2805/2807 16010KT      BECMG 2811/2813 17012G24KT SCT040      TEMPO 2814/2820 7000 SHRA BKN035      PROB40 TEMPO 2815/2818 31020G34KT 4000 TSRA BKN020CB=